Time;durP1;ratioP1;P1;durP2;ratioP2;P2;SDS_P1;SDS_P2;PMS_P1;PMS_P2;Temp;Humidity;BMP_temperature;BMP_pressure;BME280_temperature;BME280_humidity;BME280_pressure;Samples;Min_cycle;Max_cycle;Signal;HPM_P1;HPM_P2
2023/08/02 00:02:37;;;;;;;7.20;1.90;;;;;;;18.14;100.00;98927.09;5067674;28;20411;-78
2023/08/02 00:05:22;;;;;;;6.30;2.10;;;;;;;18.15;100.00;98917.47;5080369;28;20098;-78
2023/08/02 00:08:08;;;;;;;5.80;2.20;;;;;;;18.18;100.00;98929.94;5051609;28;20040;-78
2023/08/02 00:10:54;;;;;;;13.77;2.30;;;;;;;18.19;100.00;98932.38;5070206;28;20031;-78
2023/08/02 00:13:40;;;;;;;7.30;1.98;;;;;;;18.18;100.00;98916.72;5066362;28;20050;-78
2023/08/02 00:16:25;;;;;;;9.35;2.33;;;;;;;18.20;100.00;98919.16;5053583;28;20495;-78
2023/08/02 00:19:11;;;;;;;10.85;2.65;;;;;;;18.23;100.00;98926.81;5091953;28;20399;-79
2023/08/02 00:21:57;;;;;;;7.55;2.05;;;;;;;18.21;100.00;98920.75;5089211;28;20562;-79
2023/08/02 00:24:43;;;;;;;10.52;2.97;;;;;;;18.24;100.00;98915.16;5099153;28;20042;-78
2023/08/02 00:27:29;;;;;;;10.15;3.25;;;;;;;18.25;100.00;98916.00;5078329;28;20049;-78
2023/08/02 00:30:14;;;;;;;9.07;3.20;;;;;;;18.26;100.00;98918.41;5054278;28;20056;-78
2023/08/02 00:33:00;;;;;;;11.13;3.25;;;;;;;18.29;100.00;98902.78;5094873;28;20035;-79
2023/08/02 00:35:46;;;;;;;11.10;3.40;;;;;;;18.27;100.00;98908.78;5058797;28;20040;-79
2023/08/02 00:38:32;;;;;;;13.65;3.47;;;;;;;18.28;100.00;98909.59;5082990;28;20032;-78
2023/08/02 00:41:18;;;;;;;9.93;3.03;;;;;;;18.29;100.00;98897.97;5085504;28;20032;-78
2023/08/02 00:44:03;;;;;;;14.32;3.92;;;;;;;18.32;100.00;98890.78;5056922;28;20039;-79
2023/08/02 00:46:49;;;;;;;13.07;3.90;;;;;;;18.31;100.00;98897.59;5078153;28;20031;-78
2023/08/02 00:49:35;;;;;;;15.75;3.90;;;;;;;18.34;100.00;98885.56;5090790;28;20028;-78
2023/08/02 00:52:21;;;;;;;12.98;4.05;;;;;;;18.35;100.00;98875.94;5065986;28;20422;-78
2023/08/02 00:55:07;;;;;;;10.55;3.80;;;;;;;18.36;100.00;98882.38;5053374;28;20053;-79
2023/08/02 00:57:53;;;;;;;18.02;4.75;;;;;;;18.38;100.00;98868.75;5090835;28;20068;-79
2023/08/02 01:00:39;;;;;;;15.52;4.22;;;;;;;18.39;100.00;98868.38;5058740;28;20500;-79
2023/08/02 01:03:24;;;;;;;16.00;4.40;;;;;;;18.39;100.00;98865.56;5085871;28;20085;-79
2023/08/02 01:06:13;;;;;;;13.30;3.75;;;;;;;18.39;100.00;98848.69;5064551;28;20059;-79
2023/08/02 01:09:14;;;;;;;14.48;4.07;;;;;;;18.41;100.00;98845.47;5091689;28;20086;-79
2023/08/02 01:12:08;;;;;;;14.65;4.00;;;;;;;18.38;100.00;98830.19;5077822;28;20232;-79
2023/08/02 01:14:57;;;;;;;14.00;3.88;;;;;;;18.42;100.00;98835.88;5086132;28;20059;-79
2023/08/02 01:17:43;;;;;;;13.15;3.50;;;;;;;18.42;100.00;98827.44;5068927;28;20036;-78
2023/08/02 01:20:29;;;;;;;16.13;4.10;;;;;;;18.44;100.00;98827.84;5082671;28;20097;-79
2023/08/02 01:23:15;;;;;;;12.73;3.70;;;;;;;18.44;100.00;98816.59;5092016;28;20040;-79
2023/08/02 01:26:00;;;;;;;9.52;3.30;;;;;;;18.39;100.00;98814.97;5065472;28;20027;-79
2023/08/02 01:28:47;;;;;;;11.48;3.35;;;;;;;18.44;100.00;98816.59;5074447;28;20046;-79
2023/08/02 01:31:33;;;;;;;11.30;2.83;;;;;;;18.44;100.00;98817.44;5059357;28;20036;-79
2023/08/02 01:34:19;;;;;;;8.77;2.88;;;;;;;18.43;100.00;98810.19;5050597;28;20056;-79
2023/08/02 01:37:05;;;;;;;8.52;2.67;;;;;;;18.45;100.00;98799.34;5046659;28;20034;-79
2023/08/02 01:39:50;;;;;;;5.45;2.53;;;;;;;18.44;100.00;98797.75;5070620;28;20479;-79
2023/08/02 01:42:36;;;;;;;11.32;2.72;;;;;;;18.47;100.00;98802.59;5094638;28;20058;-78
2023/08/02 01:45:22;;;;;;;8.93;2.67;;;;;;;18.49;100.00;98791.75;5064054;28;20041;-79
2023/08/02 01:48:08;;;;;;;9.57;2.20;;;;;;;18.48;100.00;98797.78;5074085;28;20484;-79
2023/08/02 01:50:53;;;;;;;6.82;2.10;;;;;;;18.48;100.00;98778.91;5052815;28;20016;-79
2023/08/02 01:53:39;;;;;;;6.00;2.15;;;;;;;18.48;100.00;98778.09;5036966;28;20029;-79
2023/08/02 01:56:25;;;;;;;6.65;2.10;;;;;;;18.49;100.00;98772.06;5069492;28;20392;-79
2023/08/02 01:59:12;;;;;;;6.88;2.10;;;;;;;18.50;100.00;98765.28;5070644;28;20035;-79
2023/08/02 02:01:57;;;;;;;5.13;1.95;;;;;;;18.51;100.00;98772.50;5080172;28;20032;-79
2023/08/02 02:04:44;;;;;;;6.78;1.90;;;;;;;18.51;100.00;98766.88;5049533;28;20031;-79
2023/08/02 02:07:29;;;;;;;4.70;1.65;;;;;;;18.51;100.00;98768.88;5087705;28;20035;-79
2023/08/02 02:10:15;;;;;;;7.03;1.88;;;;;;;18.50;100.00;98761.66;5082256;28;20024;-79
2023/08/02 02:13:01;;;;;;;5.65;1.40;;;;;;;18.50;100.00;98761.66;5074306;28;20491;-79
2023/08/02 02:15:47;;;;;;;4.28;1.42;;;;;;;18.51;100.00;98761.25;5075334;28;20039;-79
2023/08/02 02:18:33;;;;;;;3.40;1.63;;;;;;;18.52;100.00;98754.44;5057953;28;20047;-79
2023/08/02 02:21:18;;;;;;;3.63;1.48;;;;;;;18.52;100.00;98748.81;5071721;28;20040;-79
2023/08/02 02:24:04;;;;;;;5.28;1.00;;;;;;;18.52;100.00;98750.81;5065888;28;20035;-79
2023/08/02 02:26:50;;;;;;;4.80;1.17;;;;;;;18.52;100.00;98743.19;5069695;28;20053;-79
2023/08/02 02:29:36;;;;;;;4.90;1.27;;;;;;;18.53;100.00;98739.19;5079995;28;20035;-79
2023/08/02 02:32:21;;;;;;;3.30;0.93;;;;;;;18.52;100.00;98736.75;5075876;28;20062;-79
2023/08/02 02:35:12;;;;;;;3.00;0.80;;;;;;;18.54;100.00;98731.56;5058684;28;20024;-79
2023/08/02 02:37:58;;;;;;;4.40;0.90;;;;;;;18.53;100.00;98730.75;5072333;28;20050;-79
2023/08/02 02:40:43;;;;;;;2.50;0.98;;;;;;;18.56;100.00;98723.56;5081009;28;20031;-79
2023/08/02 02:43:29;;;;;;;5.60;1.27;;;;;;;18.57;100.00;98727.16;5090854;28;20031;-79
2023/08/02 02:46:15;;;;;;;4.05;0.98;;;;;;;18.56;100.00;98717.13;5069967;28;20036;-79
2023/08/02 02:49:01;;;;;;;3.15;1.00;;;;;;;18.57;100.00;98704.69;5092305;28;20577;-79
2023/08/02 02:51:47;;;;;;;3.50;0.77;;;;;;;18.57;100.00;98708.28;5067628;28;20048;-79
2023/08/02 02:54:32;;;;;;;2.05;0.68;;;;;;;18.58;100.00;98693.03;5088827;28;20408;-79
2023/08/02 02:57:18;;;;;;;2.25;0.50;;;;;;;18.57;100.00;98697.03;5071604;28;20372;-79
2023/08/02 03:00:05;;;;;;;2.20;0.50;;;;;;;18.59;100.00;98691.03;5065719;28;20031;-79
2023/08/02 03:02:51;;;;;;;2.33;0.68;;;;;;;18.56;100.00;98684.19;5075747;28;20065;-79
2023/08/02 03:05:40;;;;;;;1.02;0.40;;;;;;;18.59;100.00;98683.41;5102203;28;20437;-79
2023/08/02 03:08:25;;;;;;;1.27;0.40;;;;;;;18.59;100.00;98676.97;5065707;28;20089;-79
2023/08/02 03:11:11;;;;;;;1.20;0.30;;;;;;;18.59;100.00;98674.19;5073225;28;20480;-79
2023/08/02 03:13:57;;;;;;;1.52;0.40;;;;;;;18.60;100.00;98667.34;5075055;28;20032;-79
2023/08/02 03:16:43;;;;;;;0.50;0.30;;;;;;;18.60;100.00;98658.91;5055870;28;20440;-79
2023/08/02 03:19:29;;;;;;;3.15;0.40;;;;;;;18.60;100.00;98658.91;5061001;28;20064;-79
2023/08/02 03:22:14;;;;;;;1.75;0.30;;;;;;;18.59;100.00;98651.69;5056768;28;20119;-79
2023/08/02 03:25:00;;;;;;;1.23;0.30;;;;;;;18.60;100.00;98650.47;5068326;28;20028;-78
2023/08/02 03:27:46;;;;;;;1.05;0.30;;;;;;;18.59;100.00;98643.25;5066715;28;20036;-79
2023/08/02 03:30:32;;;;;;;1.80;0.30;;;;;;;18.59;100.00;98646.06;5073683;28;20035;-79
2023/08/02 03:33:18;;;;;;;1.13;0.20;;;;;;;18.58;100.00;98625.56;5049484;28;20469;-79
2023/08/02 03:36:03;;;;;;;3.78;0.40;;;;;;;18.59;100.00;98632.00;5071113;28;20056;-79
2023/08/02 03:38:49;;;;;;;0.22;0.20;;;;;;;18.60;100.00;98650.47;5081897;28;20445;-78
2023/08/02 03:41:35;;;;;;;2.15;0.40;;;;;;;18.57;100.00;98635.19;5081442;28;20063;-79
2023/08/02 03:44:21;;;;;;;2.42;0.20;;;;;;;18.57;100.00;98631.59;5079537;28;20044;-79
2023/08/02 03:47:07;;;;;;;1.83;0.30;;;;;;;18.60;100.00;98630.78;5062876;28;20032;-78
2023/08/02 03:49:53;;;;;;;0.70;0.20;;;;;;;18.58;100.00;98625.56;5085176;28;20024;-79
2023/08/02 03:52:38;;;;;;;1.80;0.20;;;;;;;18.59;100.00;98630.00;5089665;28;20024;-79
2023/08/02 03:55:24;;;;;;;2.47;0.35;;;;;;;18.59;100.00;98626.38;5054002;28;20028;-79
2023/08/02 03:58:10;;;;;;;0.50;0.20;;;;;;;18.58;100.00;98631.19;5053572;28;20039;-79
2023/08/02 04:00:56;;;;;;;0.57;0.20;;;;;;;18.60;100.00;98627.97;5057080;28;20040;-79
2023/08/02 04:03:41;;;;;;;1.52;0.20;;;;;;;18.58;100.00;98624.75;5074541;28;20040;-79
2023/08/02 04:06:27;;;;;;;0.40;0.20;;;;;;;18.57;100.00;98618.34;5074179;28;20071;-79
2023/08/02 04:09:13;;;;;;;1.23;0.30;;;;;;;18.59;100.00;98615.13;5072798;28;20040;-79
2023/08/02 04:11:59;;;;;;;0.77;0.20;;;;;;;18.56;100.00;98613.91;5064362;28;20060;-79
2023/08/02 04:14:45;;;;;;;0.50;0.10;;;;;;;18.57;100.00;98623.94;5046837;28;20030;-79
2023/08/02 04:17:30;;;;;;;0.10;0.10;;;;;;;18.57;100.00;98606.28;5067674;28;20050;-80
2023/08/02 04:20:16;;;;;;;1.35;0.25;;;;;;;18.60;100.00;98608.31;5095733;28;20122;-79
2023/08/02 04:23:02;;;;;;;0.47;0.20;;;;;;;18.61;100.00;98601.47;5070809;28;20040;-79
2023/08/02 04:25:48;;;;;;;1.15;0.10;;;;;;;18.59;100.00;98604.69;5089839;28;20046;-79
2023/08/02 04:28:34;;;;;;;0.90;0.20;;;;;;;18.59;100.00;98604.69;5071568;28;20039;-79
2023/08/02 04:31:19;;;;;;;2.85;0.28;;;;;;;18.59;100.00;98615.13;5091743;28;20027;-79
2023/08/02 04:34:05;;;;;;;0.70;0.10;;;;;;;18.57;100.00;98603.47;5075738;28;20114;-79
2023/08/02 04:36:51;;;;;;;0.50;0.20;;;;;;;18.57;100.00;98597.84;5069081;28;20103;-79
2023/08/02 04:39:37;;;;;;;0.50;0.15;;;;;;;18.56;100.00;98605.47;5079214;28;20023;-79
2023/08/02 04:42:25;;;;;;;1.20;0.10;;;;;;;18.56;100.00;98593.44;5063992;28;20376;-79
2023/08/02 04:45:10;;;;;;;0.73;0.17;;;;;;;18.59;100.00;98609.50;5073945;28;20027;-79
2023/08/02 04:47:56;;;;;;;2.83;0.20;;;;;;;18.57;100.00;98609.09;5069525;28;20037;-79
2023/08/02 04:50:43;;;;;;;2.58;0.10;;;;;;;18.56;100.00;98610.31;5072779;28;20032;-79
2023/08/02 04:53:29;;;;;;;0.28;0.08;;;;;;;18.57;100.00;98615.53;5047059;28;20031;-79
2023/08/02 04:56:15;;;;;;;0.73;0.10;;;;;;;18.56;100.00;98615.94;5057799;28;20081;-79
2023/08/02 04:59:01;;;;;;;0.10;0.05;;;;;;;18.56;100.00;98615.94;5061227;28;20040;-79
2023/08/02 05:01:46;;;;;;;0.38;0.10;;;;;;;18.53;100.00;98584.59;5064296;28;20033;-79
2023/08/02 05:04:32;;;;;;;0.85;0.10;;;;;;;18.54;100.00;98602.25;5077249;28;20110;-79
2023/08/02 05:07:18;;;;;;;0.75;0.10;;;;;;;18.52;100.00;98611.06;5092713;28;20043;-79
2023/08/02 05:10:05;;;;;;;0.80;0.13;;;;;;;18.50;100.00;98610.69;5070628;28;20024;-79
2023/08/02 05:12:51;;;;;;;2.85;0.15;;;;;;;18.52;100.00;98615.88;5047900;28;20040;-79
2023/08/02 05:15:37;;;;;;;0.85;0.10;;;;;;;18.50;100.00;98615.50;5067075;28;20090;-78
2023/08/02 05:18:22;;;;;;;0.70;0.20;;;;;;;18.45;100.00;98616.66;5080462;28;20062;-79
2023/08/02 05:21:15;;;;;;;0.60;0.13;;;;;;;18.46;100.00;98611.84;5065407;28;20495;-78
2023/08/02 05:24:02;;;;;;;1.83;0.20;;;;;;;18.43;100.00;98613.44;5069454;28;20052;-78
2023/08/02 05:26:48;;;;;;;0.90;0.20;;;;;;;18.42;100.00;98605.41;5085465;28;20032;-79
2023/08/02 05:29:34;;;;;;;2.33;0.50;;;;;;;18.40;100.00;98625.47;5094091;28;20028;-78
2023/08/02 05:32:20;;;;;;;4.18;0.60;;;;;;;18.40;100.00;98619.84;5070489;28;20047;-79
2023/08/02 05:35:06;;;;;;;3.53;0.63;;;;;;;18.39;100.00;98617.44;5076684;28;20095;-78
2023/08/02 05:37:52;;;;;;;5.50;0.57;;;;;;;18.38;100.00;98618.63;5069282;28;20027;-78
2023/08/02 05:40:38;;;;;;;2.83;0.73;;;;;;;18.38;100.00;98633.47;5052648;28;20115;-78
2023/08/02 05:43:24;;;;;;;6.05;1.00;;;;;;;18.41;100.00;98632.69;5075116;28;20035;-79
2023/08/02 05:46:10;;;;;;;6.00;1.17;;;;;;;18.43;100.00;98644.34;5058170;28;20037;-79
2023/08/02 05:48:56;;;;;;;6.28;1.00;;;;;;;18.46;100.00;98640.75;5094216;28;20043;-79
2023/08/02 05:51:42;;;;;;;4.93;0.93;;;;;;;18.48;100.00;98637.56;5082919;28;20130;-78
2023/08/02 05:54:28;;;;;;;8.98;1.20;;;;;;;18.49;100.00;98634.34;5069220;28;20043;-79
2023/08/02 05:57:14;;;;;;;3.72;0.85;;;;;;;18.52;100.00;98639.19;5082985;28;20031;-79
2023/08/02 06:00:00;;;;;;;5.57;1.00;;;;;;;18.56;100.00;98624.38;5052986;28;20471;-79
2023/08/02 06:02:46;;;;;;;7.88;1.20;;;;;;;18.61;100.00;98632.41;5074419;28;20039;-78
2023/08/02 06:05:32;;;;;;;10.85;1.90;;;;;;;18.63;100.00;98630.81;5090377;28;20411;-78
2023/08/02 06:08:18;;;;;;;8.02;1.33;;;;;;;18.71;100.00;98611.97;5070308;28;20038;-78
2023/08/02 06:11:04;;;;;;;7.18;1.20;;;;;;;18.76;100.00;98603.19;5083261;28;20112;-78
2023/08/02 06:13:49;;;;;;;8.80;1.65;;;;;;;18.86;100.00;98608.06;5066072;28;20507;-79
2023/08/02 06:16:35;;;;;;;10.10;1.92;;;;;;;18.95;100.00;98611.31;5057657;28;20044;-78
2023/08/02 06:19:21;;;;;;;10.63;2.53;;;;;;;19.03;100.00;98606.50;5053709;28;20054;-78
2023/08/02 06:22:08;;;;;;;10.82;2.30;;;;;;;19.16;100.00;98601.31;5052157;28;20037;-79
2023/08/02 06:24:53;;;;;;;9.57;2.30;;;;;;;19.28;100.00;98600.94;5068266;28;20032;-79
2023/08/02 06:27:39;;;;;;;7.03;1.77;;;;;;;19.42;100.00;98592.53;5043169;28;20029;-78
2023/08/02 06:30:25;;;;;;;11.52;2.20;;;;;;;19.52;100.00;98598.56;5044638;28;20029;-79
2023/08/02 06:33:11;;;;;;;10.10;2.25;;;;;;;19.60;100.00;98600.97;5029281;28;20037;-78
2023/08/02 06:35:56;;;;;;;11.07;2.78;;;;;;;19.67;100.00;98600.22;5039686;28;20119;-78
2023/08/02 06:38:46;;;;;;;14.32;2.88;;;;;;;19.70;100.00;98587.34;5018221;28;20507;-79
2023/08/02 06:41:32;;;;;;;15.18;2.78;;;;;;;19.77;100.00;98592.97;5050058;28;20036;-78
2023/08/02 06:44:18;;;;;;;16.65;2.97;;;;;;;19.84;100.00;98610.69;5062780;28;20373;-78
2023/08/02 06:47:04;;;;;;;13.80;3.17;;;;;;;19.92;100.00;98599.41;5052109;28;20119;-78
2023/08/02 06:49:50;;;;;;;13.95;2.92;;;;;;;20.02;100.00;98595.78;5043795;28;20511;-78
2023/08/02 06:52:35;;;;;;;15.95;2.95;;;;;;;20.14;100.00;98594.53;5042720;28;20033;-79
2023/08/02 06:55:21;;;;;;;14.60;3.55;;;;;;;20.18;100.00;98596.16;5039343;28;20068;-78
2023/08/02 06:58:10;;;;;;;17.25;3.47;;;;;;;20.22;100.00;98602.56;5034093;28;20139;-78
2023/08/02 07:00:58;;;;;;;15.68;3.25;;;;;;;20.26;100.00;98594.94;5060211;28;20603;-79
2023/08/02 07:03:44;;;;;;;18.23;2.90;;;;;;;20.25;100.00;98596.16;5040781;28;20560;-78
2023/08/02 07:06:30;;;;;;;19.48;3.53;;;;;;;20.27;100.00;98605.00;5016482;28;20051;-78
2023/08/02 07:09:15;;;;;;;16.27;2.92;;;;;;;20.30;100.00;98609.81;5047251;28;20036;-78
2023/08/02 07:12:01;;;;;;;14.52;2.90;;;;;;;20.27;100.00;98607.81;5051333;28;20044;-78
2023/08/02 07:14:47;;;;;;;11.32;2.65;;;;;;;20.26;100.00;98606.22;5042275;28;20488;-78
2023/08/02 07:17:33;;;;;;;13.60;2.67;;;;;;;20.22;100.00;98619.50;5024057;28;20040;-78
2023/08/02 07:20:19;;;;;;;16.23;2.70;;;;;;;20.24;100.00;98627.56;5058216;28;20040;-78
2023/08/02 07:23:05;;;;;;;12.88;2.45;;;;;;;20.27;100.00;98627.53;5046874;28;20036;-78
2023/08/02 07:25:50;;;;;;;19.73;2.85;;;;;;;20.36;100.00;98624.28;5062233;28;20043;-78
2023/08/02 07:28:36;;;;;;;11.15;2.65;;;;;;;20.37;100.00;98620.28;5042178;28;20408;-78
2023/08/02 07:31:22;;;;;;;14.90;3.00;;;;;;;20.38;100.00;98627.53;5035556;28;20041;-78
2023/08/02 07:34:08;;;;;;;11.65;2.38;;;;;;;20.39;100.00;98612.22;5059501;28;20035;-78
2023/08/02 07:36:54;;;;;;;16.02;3.03;;;;;;;20.33;100.00;98622.28;5060300;28;20035;-78
2023/08/02 07:39:40;;;;;;;12.38;2.72;;;;;;;20.37;100.00;98620.28;5077047;28;20447;-78
2023/08/02 07:42:26;;;;;;;12.50;2.42;;;;;;;20.40;100.00;98604.56;5059313;28;20036;-78
2023/08/02 07:45:12;;;;;;;17.88;3.22;;;;;;;20.48;100.00;98604.16;5054753;28;20032;-78
2023/08/02 07:47:57;;;;;;;14.40;2.75;;;;;;;20.61;100.00;98604.53;5045830;28;20044;-78
2023/08/02 07:50:43;;;;;;;18.02;3.38;;;;;;;20.71;100.00;98606.50;5077423;28;20059;-78
2023/08/02 07:53:29;;;;;;;21.50;3.50;;;;;;;20.83;100.00;98613.72;5018091;28;20029;-78
2023/08/02 07:56:15;;;;;;;15.73;3.30;;;;;;;20.93;100.00;98609.25;5071401;28;20032;-78
2023/08/02 07:59:00;;;;;;;14.52;2.92;;;;;;;21.00;100.00;98612.03;5065516;28;20478;-78
2023/08/02 08:01:46;;;;;;;15.48;3.10;;;;;;;21.05;100.00;98625.72;5074142;28;20039;-78
2023/08/02 08:04:32;;;;;;;12.32;2.15;;;;;;;21.14;100.00;98623.25;5054828;28;20036;-78
2023/08/02 08:07:18;;;;;;;13.52;2.60;;;;;;;21.07;100.00;98612.00;5069275;28;20040;-78
2023/08/02 08:10:04;;;;;;;16.02;2.72;;;;;;;21.06;100.00;98616.06;5060793;28;20545;-78
2023/08/02 08:12:50;;;;;;;17.02;3.17;;;;;;;21.01;100.00;98616.47;5053211;28;20028;-78
2023/08/02 08:15:36;;;;;;;14.55;3.20;;;;;;;21.03;100.00;98621.69;5042530;28;20040;-78
2023/08/02 08:18:22;;;;;;;17.20;3.22;;;;;;;20.93;100.00;98617.72;5065695;28;20381;-78
2023/08/02 08:21:08;;;;;;;16.40;3.00;;;;;;;20.95;100.00;98615.31;5089493;28;20061;-78
2023/08/02 08:23:54;;;;;;;19.20;3.05;;;;;;;20.89;100.00;98606.44;5086542;28;20042;-78
2023/08/02 08:26:39;;;;;;;15.13;3.15;;;;;;;20.94;100.00;98610.84;5073938;28;20111;-78
2023/08/02 08:29:28;;;;;;;15.07;2.53;;;;;;;21.04;100.00;98610.00;5079759;28;20028;-78
2023/08/02 08:32:15;;;;;;;13.20;2.42;;;;;;;21.13;100.00;98598.25;5084574;28;20135;-78
2023/08/02 08:35:01;;;;;;;14.05;2.40;;;;;;;21.20;100.00;98604.69;5097314;28;20096;-78
2023/08/02 08:37:49;;;;;;;14.95;2.72;;;;;;;21.37;100.00;98605.81;5063580;28;20067;-78
2023/08/02 08:40:34;;;;;;;12.65;2.60;;;;;;;21.56;100.00;98604.50;5070006;28;20036;-79
2023/08/02 08:43:25;;;;;;;13.40;2.65;;;;;;;21.72;100.00;98589.81;5077623;28;20403;-79
2023/08/02 08:46:11;;;;;;;11.15;2.67;;;;;;;21.93;100.00;98600.16;5087910;28;20066;-79
2023/08/02 08:48:59;;;;;;;15.23;2.25;;;;;;;22.17;100.00;98597.50;5059610;28;20043;-79
2023/08/02 08:51:45;;;;;;;16.15;2.90;;;;;;;22.37;100.00;98589.25;5060729;28;20059;-79
2023/08/02 08:54:31;;;;;;;10.95;1.95;;;;;;;22.56;100.00;98580.16;5089274;28;20534;-79
2023/08/02 08:57:17;;;;;;;15.13;2.58;;;;;;;22.78;100.00;98577.84;5067338;28;20040;-79
2023/08/02 09:00:03;;;;;;;15.23;2.65;;;;;;;22.92;100.00;98579.69;5068853;28;20039;-79
2023/08/02 09:02:49;;;;;;;13.38;2.83;;;;;;;23.02;100.00;98584.47;5070280;28;20104;-79
2023/08/02 09:05:35;;;;;;;10.68;2.45;;;;;;;23.08;100.00;98581.97;5109077;28;20039;-79
2023/08/02 09:08:21;;;;;;;11.73;2.47;;;;;;;23.17;100.00;98585.84;5072878;28;20407;-79
2023/08/02 09:11:06;;;;;;;11.98;2.17;;;;;;;23.15;100.00;98582.66;5076262;28;20043;-79
2023/08/02 09:14:11;;;;;;;13.95;2.10;;;;;;;23.11;100.00;98578.28;5079598;28;20033;-79
2023/08/02 09:17:00;;;;;;;11.00;2.22;;;;;;;23.08;100.00;98581.97;5046465;28;20568;-79
2023/08/02 09:19:46;;;;;;;12.88;2.22;;;;;;;23.05;100.00;98577.16;5054444;28;20112;-79
2023/08/02 09:22:32;;;;;;;21.20;2.35;;;;;;;23.03;100.00;98573.94;5080156;28;20077;-79
2023/08/02 09:25:21;;;;;;;11.20;1.95;;;;;;;22.94;100.00;98571.59;5056989;28;20116;-79
2023/08/02 09:28:10;;;;;;;14.00;2.42;;;;;;;22.91;100.00;98578.09;5093372;28;20036;-79
2023/08/02 09:30:56;;;;;;;12.68;2.40;;;;;;;22.84;100.00;98562.00;5064907;28;20041;-79
2023/08/02 09:33:50;;;;;;;13.70;2.05;;;;;;;22.81;100.00;98577.00;5079733;28;20043;-79
2023/08/02 09:36:36;;;;;;;12.38;2.40;;;;;;;22.82;100.00;98570.13;5071338;28;20032;-79
2023/08/02 09:39:21;;;;;;;14.40;2.63;;;;;;;22.86;100.00;98570.09;5050354;28;20044;-79
2023/08/02 09:42:09;;;;;;;15.05;2.65;;;;;;;22.86;100.00;98568.06;5054015;28;20438;-79
2023/08/02 09:45:03;;;;;;;14.73;1.98;;;;;;;22.91;100.00;98573.25;5070753;28;20039;-79
2023/08/02 09:47:52;;;;;;;8.85;1.85;;;;;;;22.99;100.00;98571.16;5091574;28;20098;-79
2023/08/02 09:50:57;;;;;;;10.23;1.95;;;;;;;23.15;100.00;98570.53;5059760;28;20067;-79
2023/08/02 09:53:55;;;;;;;10.82;2.28;;;;;;;23.11;100.00;98559.25;5048238;28;20086;-79
2023/08/02 09:56:41;;;;;;;11.70;1.98;;;;;;;23.26;100.00;98576.81;5063428;28;20652;-79
2023/08/02 09:59:29;;;;;;;9.73;2.30;;;;;;;23.26;100.00;98574.00;5055898;28;20043;-79
2023/08/02 10:02:15;;;;;;;10.82;2.08;;;;;;;23.30;100.00;98566.25;5065399;28;20032;-79
2023/08/02 10:05:01;;;;;;;8.25;2.17;;;;;;;23.34;100.00;98571.88;5074248;28;20043;-79
2023/08/02 10:07:53;;;;;;;13.75;2.53;;;;;;;23.33;100.00;98559.75;5045813;28;20036;-79
2023/08/02 10:10:39;;;;;;;9.57;2.15;;;;;;;23.44;100.00;98550.28;5075031;28;20090;-79
2023/08/02 10:13:26;;;;;;;13.45;2.17;;;;;;;23.50;100.00;98557.06;5042416;28;20041;-79
2023/08/02 10:16:12;;;;;;;9.88;1.65;;;;;;;23.65;100.00;98544.25;5059261;28;20078;-80
2023/08/02 10:18:58;;;;;;;12.60;1.83;;;;;;;23.71;100.00;98539.75;5059061;28;20549;-79
2023/08/02 10:21:44;;;;;;;12.65;1.88;;;;;;;23.83;100.00;98541.97;5078814;28;20082;-79
2023/08/02 10:24:30;;;;;;;8.20;1.60;;;;;;;23.86;100.00;98543.94;5084137;28;20510;-79
2023/08/02 10:27:16;;;;;;;5.45;1.48;;;;;;;23.93;100.00;98540.19;5076564;28;20028;-79
2023/08/02 10:30:03;;;;;;;8.77;1.55;;;;;;;23.95;100.00;98543.38;5082122;28;20040;-79
2023/08/02 10:33:14;;;;;;;8.13;1.75;;;;;;;23.82;100.00;98536.72;5061839;28;20038;-79
2023/08/02 10:36:01;;;;;;;6.95;1.70;;;;;;;23.83;100.00;98536.28;5074341;28;20111;-79
2023/08/02 10:38:48;;;;;;;10.45;2.58;;;;;;;23.75;100.00;98531.97;5091658;28;20391;-79
2023/08/02 10:41:34;;;;;;;14.00;2.25;;;;;;;23.68;100.00;98523.59;5066900;28;20500;-79
2023/08/02 10:44:20;;;;;;;14.55;2.78;;;;;;;23.47;100.00;98529.59;5084524;28;20032;-79
2023/08/02 10:47:24;;;;;;;12.55;2.50;;;;;;;23.37;100.00;98537.03;5077203;28;20037;-79
2023/08/02 10:50:44;;;;;;;15.85;2.58;;;;;;;23.31;100.00;98521.75;5087595;28;20035;-79
2023/08/02 10:53:29;;;;;;;17.77;2.60;;;;;;;23.18;100.00;98527.22;5083091;28;20042;-79
2023/08/02 10:56:17;;;;;;;9.65;2.00;;;;;;;23.15;100.00;98520.38;5088421;28;20028;-79
2023/08/02 10:59:02;;;;;;;13.82;2.25;;;;;;;23.03;100.00;98518.13;5066704;28;20044;-79
2023/08/02 11:02:01;;;;;;;15.25;1.92;;;;;;;22.99;100.00;98530.75;5066603;28;20029;-79
2023/08/02 11:04:48;;;;;;;16.08;2.42;;;;;;;22.91;100.00;98530.00;5068634;28;20560;-78
2023/08/02 11:07:35;;;;;;;11.48;2.65;;;;;;;22.87;100.00;98538.53;5063644;28;20043;-79
2023/08/02 11:10:21;;;;;;;13.68;2.47;;;;;;;22.73;100.00;98527.38;5093338;28;20111;-79
2023/08/02 11:13:07;;;;;;;11.13;2.15;;;;;;;22.74;100.00;98531.84;5108204;28;20031;-79
2023/08/02 11:16:01;;;;;;;15.95;2.38;;;;;;;22.68;100.00;98517.38;5058384;28;20024;-79
2023/08/02 11:18:49;;;;;;;14.45;2.70;;;;;;;22.65;100.00;98548.50;5087041;28;20035;-79
2023/08/02 11:21:35;;;;;;;13.90;1.75;;;;;;;22.57;100.00;98541.38;5068194;28;20040;-79
2023/08/02 11:24:21;;;;;;;11.23;2.00;;;;;;;22.58;100.00;98526.78;5068223;28;20027;-79
2023/08/02 11:27:07;;;;;;;17.38;2.97;;;;;;;22.61;100.00;98522.31;5087898;28;20036;-79
2023/08/02 11:30:04;;;;;;;14.25;2.30;;;;;;;22.63;100.00;98511.38;5100958;28;20032;-79
2023/08/02 11:32:50;;;;;;;17.52;2.75;;;;;;;22.71;100.00;98521.38;5082893;28;20046;-79
2023/08/02 11:35:36;;;;;;;12.85;2.42;;;;;;;22.70;100.00;98522.59;5078581;28;20108;-79
2023/08/02 11:38:22;;;;;;;15.88;2.65;;;;;;;22.74;100.00;98510.00;5082349;28;20059;-79
2023/08/02 11:41:20;;;;;;;14.20;2.65;;;;;;;22.70;100.00;98509.22;5085908;28;20032;-79
2023/08/02 11:44:16;;;;;;;14.63;2.90;;;;;;;22.68;100.00;98503.22;5053901;28;20036;-79
2023/08/02 11:47:01;;;;;;;15.20;3.00;;;;;;;22.67;100.00;98497.97;5056515;28;20044;-79
2023/08/02 11:49:51;;;;;;;16.77;2.75;;;;;;;22.58;100.00;98484.34;5061868;28;20035;-79
2023/08/02 11:52:37;;;;;;;16.25;2.53;;;;;;;22.57;100.00;98501.75;5081642;28;20391;-79
2023/08/02 11:55:23;;;;;;;16.95;3.25;;;;;;;22.58;100.00;98492.03;5091284;28;20552;-79
2023/08/02 11:58:08;;;;;;;13.02;2.90;;;;;;;22.46;100.00;98502.69;5058042;28;20089;-79
2023/08/02 12:00:54;;;;;;;12.55;2.45;;;;;;;22.50;100.00;98494.94;5088759;28;20192;-79
2023/08/02 12:03:55;;;;;;;15.70;3.40;;;;;;;22.36;100.00;98491.50;5067098;28;20032;-79
2023/08/02 12:06:49;;;;;;;12.43;2.25;;;;;;;22.29;100.00;98487.53;5111827;28;20047;-79
2023/08/02 12:09:43;;;;;;;16.25;2.70;;;;;;;22.30;100.00;98491.16;5081244;28;20092;-79
2023/08/02 12:12:33;;;;;;;13.90;2.65;;;;;;;22.21;100.00;98485.22;5068568;28;20116;-78
2023/08/02 12:15:19;;;;;;;14.50;2.72;;;;;;;22.22;100.00;98492.47;5078282;28;20037;-79
2023/08/02 12:18:06;;;;;;;15.63;3.03;;;;;;;22.24;100.00;98488.00;5052277;28;20520;-79
2023/08/02 12:20:52;;;;;;;17.75;3.63;;;;;;;22.33;100.00;98469.72;5061841;28;20040;-79
2023/08/02 12:23:38;;;;;;;12.23;2.45;;;;;;;22.37;100.00;98491.09;5050396;28;20027;-79
2023/08/02 12:26:35;;;;;;;16.23;2.40;;;;;;;22.45;100.00;98478.44;5071419;28;20036;-79
2023/08/02 12:29:22;;;;;;;16.55;3.20;;;;;;;22.47;100.00;98467.50;5030922;28;20028;-79
2023/08/02 12:32:09;;;;;;;15.70;2.75;;;;;;;22.51;100.00;98473.94;5048200;28;20028;-79
2023/08/02 12:34:55;;;;;;;14.55;3.10;;;;;;;22.58;100.00;98481.53;5074564;28;20042;-79
2023/08/02 12:37:41;;;;;;;15.27;1.95;;;;;;;22.64;100.00;98473.38;5048723;28;20111;-79
2023/08/02 12:40:26;;;;;;;15.55;3.25;;;;;;;22.66;100.00;98470.91;5062696;28;20036;-79
2023/08/02 12:43:12;;;;;;;16.02;2.75;;;;;;;22.71;100.00;98467.63;5067415;28;20044;-79
2023/08/02 12:45:58;;;;;;;15.55;2.95;;;;;;;22.75;100.00;98474.81;5057102;28;20037;-79
2023/08/02 12:48:44;;;;;;;12.20;2.20;;;;;;;22.83;100.00;98475.53;5036500;28;20033;-79
2023/08/02 12:51:30;;;;;;;18.75;3.13;;;;;;;22.86;100.00;98471.84;5053306;28;20082;-79
2023/08/02 12:54:15;;;;;;;14.40;2.80;;;;;;;22.98;100.00;98481.78;5053111;28;20040;-79